Time;durP1;ratioP1;P1;durP2;ratioP2;P2;SDS_P1;SDS_P2;PMS_P1;PMS_P2;Temp;Humidity;BMP_temperature;BMP_pressure;BME280_temperature;BME280_humidity;BME280_pressure;Samples;Min_cycle;Max_cycle;Signal;HPM_P1;HPM_P2
2022/06/20 00:01:30;;;;;;;7.97;2.90;;;12.50;99.90;;;;;;5049737;28;20237;-76
2022/06/20 00:03:57;;;;;;;6.43;2.83;;;12.50;99.90;;;;;;5046388;28;20232;-76
2022/06/20 00:06:25;;;;;;;4.67;2.53;;;12.50;99.90;;;;;;5045856;28;20236;-77
2022/06/20 00:08:52;;;;;;;10.10;3.10;;;12.50;99.90;;;;;;5044866;28;20228;-76
2022/06/20 00:11:22;;;;;;;6.17;2.33;;;12.40;99.90;;;;;;5045439;28;20234;-77
2022/06/20 00:13:53;;;;;;;6.47;2.63;;;12.40;99.90;;;;;;5046212;28;20336;-77
2022/06/20 00:16:22;;;;;;;6.87;2.43;;;12.40;99.90;;;;;;5045352;28;20685;-77
2022/06/20 00:18:50;;;;;;;6.27;2.60;;;12.40;99.90;;;;;;5063928;28;20226;-77
2022/06/20 00:21:19;;;;;;;4.63;2.30;;;12.40;99.90;;;;;;5045286;28;20754;-77
2022/06/20 00:23:47;;;;;;;6.47;2.27;;;12.30;99.90;;;;;;5042927;28;20236;-77
2022/06/20 00:26:14;;;;;;;7.50;2.43;;;12.30;99.90;;;;;;5043967;28;20711;-77
2022/06/20 00:28:41;;;;;;;6.07;2.57;;;12.30;99.90;;;;;;5045521;28;20233;-77
2022/06/20 00:31:08;;;;;;;7.63;2.60;;;12.30;99.90;;;;;;5045042;28;20235;-77
2022/06/20 00:33:36;;;;;;;5.97;2.47;;;12.30;99.90;;;;;;5039878;28;20294;-78
2022/06/20 00:36:03;;;;;;;5.20;2.17;;;12.20;99.90;;;;;;5038167;28;20225;-77
2022/06/20 00:38:30;;;;;;;5.73;2.13;;;12.20;99.90;;;;;;5042252;28;20706;-77
2022/06/20 00:41:00;;;;;;;6.00;2.53;;;12.20;99.90;;;;;;5046917;28;20235;-77
2022/06/20 00:43:36;;;;;;;5.27;2.27;;;12.20;99.90;;;;;;5044097;28;20222;-77
2022/06/20 00:46:07;;;;;;;4.90;2.43;;;12.20;99.90;;;;;;5043941;28;20219;-77
2022/06/20 00:48:39;;;;;;;6.07;2.40;;;12.20;99.90;;;;;;5040249;28;20230;-77
2022/06/20 00:51:15;;;;;;;7.23;2.93;;;12.20;99.90;;;;;;5037975;28;20236;-77
2022/06/20 00:53:45;;;;;;;9.07;2.30;;;12.20;99.90;;;;;;5040112;28;20221;-77
2022/06/20 00:56:16;;;;;;;8.07;2.73;;;12.20;99.90;;;;;;5036306;28;20259;-77
2022/06/20 00:58:47;;;;;;;6.93;2.47;;;12.20;99.90;;;;;;5046668;28;20232;-77
2022/06/20 01:01:16;;;;;;;5.67;2.90;;;12.20;99.90;;;;;;5044735;28;20222;-77
2022/06/20 01:03:51;;;;;;;10.70;3.17;;;12.20;99.90;;;;;;5046736;28;20229;-77
2022/06/20 01:06:24;;;;;;;7.00;2.27;;;12.20;99.90;;;;;;5057577;28;20224;-77
2022/06/20 01:08:57;;;;;;;9.67;2.97;;;12.20;99.90;;;;;;5048093;28;20235;-77
2022/06/20 01:11:27;;;;;;;7.03;2.37;;;12.20;99.90;;;;;;5047066;28;20343;-77
2022/06/20 01:13:55;;;;;;;5.73;2.40;;;12.20;99.90;;;;;;5046507;28;20254;-77
2022/06/20 01:16:27;;;;;;;4.97;2.77;;;12.20;99.90;;;;;;5044654;28;20305;-77
2022/06/20 01:19:00;;;;;;;5.93;2.37;;;12.10;99.90;;;;;;5051441;28;20716;-77
2022/06/20 01:21:32;;;;;;;4.77;2.53;;;12.20;99.90;;;;;;5041322;28;20234;-77
2022/06/20 01:24:06;;;;;;;5.63;2.63;;;12.10;99.90;;;;;;5031801;28;20947;-77
2022/06/20 01:26:45;;;;;;;4.80;2.40;;;12.10;99.90;;;;;;5046525;28;20314;-77
2022/06/20 01:29:14;;;;;;;5.17;2.20;;;12.10;99.90;;;;;;5050649;28;20568;-77
2022/06/20 01:31:45;;;;;;;5.27;2.17;;;12.10;99.90;;;;;;5048079;28;20228;-77
2022/06/20 01:34:15;;;;;;;7.40;2.57;;;12.10;99.90;;;;;;5048442;28;20219;-77
2022/06/20 01:39:30;;;;;;;6.20;2.30;;;12.00;99.90;;;;;;5051146;28;20228;-78
2022/06/20 01:44:47;;;;;;;7.13;2.67;;;11.90;99.90;;;;;;5031439;28;20234;-78
2022/06/20 01:47:14;;;;;;;4.50;2.30;;;11.90;99.90;;;;;;5042698;28;20226;-78
2022/06/20 01:49:44;;;;;;;8.27;2.30;;;11.80;99.90;;;;;;5048335;28;20231;-79
2022/06/20 01:52:18;;;;;;;5.23;2.67;;;11.80;99.90;;;;;;5037073;28;20227;-77
2022/06/20 01:54:48;;;;;;;4.47;2.37;;;11.80;99.90;;;;;;5046779;28;20241;-77
2022/06/20 01:57:17;;;;;;;7.53;2.63;;;11.70;99.90;;;;;;5043362;28;20221;-77
2022/06/20 01:59:51;;;;;;;5.93;2.27;;;11.70;99.90;;;;;;5054158;28;20591;-77
2022/06/20 02:02:19;;;;;;;5.67;2.10;;;11.70;99.90;;;;;;5046347;28;20321;-77
2022/06/20 02:04:46;;;;;;;6.80;2.50;;;11.70;99.90;;;;;;5054811;28;20219;-77
2022/06/20 02:07:14;;;;;;;4.10;2.33;;;11.70;99.90;;;;;;5048246;28;20228;-77
2022/06/20 02:09:41;;;;;;;9.10;2.50;;;11.70;99.90;;;;;;5049280;28;20318;-77
2022/06/20 02:12:11;;;;;;;7.63;2.60;;;11.70;99.90;;;;;;5047482;28;20264;-76
2022/06/20 02:14:41;;;;;;;5.27;2.70;;;11.70;99.90;;;;;;5045884;28;20950;-77
2022/06/20 02:17:12;;;;;;;7.03;2.47;;;11.60;99.90;;;;;;5037912;28;20243;-76
2022/06/20 02:19:44;;;;;;;10.00;2.70;;;11.60;99.90;;;;;;5045921;28;20227;-77
2022/06/20 02:22:12;;;;;;;7.70;2.83;;;11.70;99.90;;;;;;5050432;28;20322;-77
2022/06/20 02:24:41;;;;;;;8.17;2.40;;;11.70;99.90;;;;;;5045034;28;20312;-77
2022/06/20 02:27:14;;;;;;;7.20;2.40;;;11.70;99.90;;;;;;5043858;28;20229;-77
2022/06/20 02:29:41;;;;;;;6.57;2.33;;;11.70;99.90;;;;;;5051601;28;20314;-77
2022/06/20 02:32:13;;;;;;;8.17;2.30;;;11.70;99.90;;;;;;5046325;28;20232;-77
2022/06/20 02:34:40;;;;;;;8.40;2.67;;;11.70;99.90;;;;;;5046920;28;20230;-77
2022/06/20 02:37:11;;;;;;;5.50;2.47;;;11.70;99.90;;;;;;5036778;28;20216;-77
2022/06/20 02:39:40;;;;;;;7.13;2.67;;;11.70;99.90;;;;;;5043059;28;20319;-77
2022/06/20 02:42:10;;;;;;;7.13;2.40;;;11.60;99.90;;;;;;5038258;28;20224;-77
2022/06/20 02:44:37;;;;;;;9.43;2.90;;;11.60;99.90;;;;;;5048786;28;20647;-77
2022/06/20 02:47:06;;;;;;;6.97;2.60;;;11.60;99.90;;;;;;5039772;28;20220;-77
2022/06/20 02:49:36;;;;;;;7.20;2.27;;;11.50;99.90;;;;;;5042731;28;20316;-77
2022/06/20 02:52:06;;;;;;;5.73;2.37;;;11.50;99.90;;;;;;5045042;28;20221;-77
2022/06/20 02:54:35;;;;;;;6.10;2.90;;;11.50;99.90;;;;;;5049745;28;20238;-79
2022/06/20 02:57:07;;;;;;;9.40;2.77;;;11.40;99.90;;;;;;5046927;28;20899;-75
2022/06/20 02:59:41;;;;;;;5.43;2.37;;;11.40;99.90;;;;;;5047708;28;20233;-75
2022/06/20 03:02:10;;;;;;;4.00;2.33;;;11.40;99.90;;;;;;5055998;28;20677;-76
2022/06/20 03:04:42;;;;;;;6.73;2.40;;;11.30;99.90;;;;;;5050933;28;20232;-77
2022/06/20 03:07:13;;;;;;;7.63;2.37;;;11.30;99.90;;;;;;5055445;28;20228;-76
2022/06/20 03:09:42;;;;;;;6.93;2.57;;;11.30;99.90;;;;;;5045799;28;20239;-77
2022/06/20 03:12:11;;;;;;;4.73;2.23;;;11.30;99.90;;;;;;5048903;28;20612;-76
2022/06/20 03:14:42;;;;;;;5.17;2.77;;;11.30;99.90;;;;;;5046659;28;20821;-77
2022/06/20 03:17:10;;;;;;;5.53;2.47;;;11.30;99.90;;;;;;5048653;28;20242;-77
2022/06/20 03:19:42;;;;;;;8.30;2.30;;;11.40;99.90;;;;;;5036453;28;20243;-76
2022/06/20 03:22:14;;;;;;;6.10;2.50;;;11.40;99.90;;;;;;5049196;28;20226;-77
2022/06/20 03:24:42;;;;;;;6.97;2.70;;;11.40;99.90;;;;;;5047843;28;20231;-77
2022/06/20 03:27:13;;;;;;;5.90;2.40;;;11.30;99.90;;;;;;5047495;28;20321;-76
2022/06/20 03:29:41;;;;;;;8.67;2.73;;;11.30;99.90;;;;;;5056677;28;20229;-76
2022/06/20 03:32:08;;;;;;;6.17;2.70;;;11.30;99.90;;;;;;5049831;28;20228;-76
2022/06/20 03:34:35;;;;;;;7.20;2.43;;;11.30;99.90;;;;;;5053052;28;20224;-76
2022/06/20 03:37:03;;;;;;;7.27;2.93;;;11.30;99.90;;;;;;5047260;28;20220;-76
2022/06/20 03:39:30;;;;;;;6.57;2.50;;;11.30;99.90;;;;;;5047282;28;20226;-77
2022/06/20 03:41:57;;;;;;;7.13;3.00;;;11.30;99.90;;;;;;5045455;28;20213;-77
2022/06/20 03:44:29;;;;;;;6.47;2.63;;;11.40;99.90;;;;;;5040883;28;20228;-77
2022/06/20 03:47:02;;;;;;;7.13;2.50;;;11.40;99.90;;;;;;5047590;28;20602;-77
2022/06/20 03:49:33;;;;;;;9.50;2.90;;;11.40;99.90;;;;;;5050037;28;20716;-77
2022/06/20 03:52:07;;;;;;;9.77;3.07;;;11.40;99.90;;;;;;5049500;28;20223;-75
2022/06/20 03:54:41;;;;;;;5.43;2.33;;;11.50;99.90;;;;;;5040237;28;20235;-75
2022/06/20 03:57:12;;;;;;;5.90;2.50;;;11.50;99.90;;;;;;5046480;28;20605;-76
2022/06/20 03:59:42;;;;;;;5.80;2.80;;;11.50;99.90;;;;;;5045588;28;20778;-76
2022/06/20 04:02:14;;;;;;;7.70;2.60;;;11.60;99.90;;;;;;5036537;28;20253;-75
2022/06/20 04:04:48;;;;;;;7.00;2.50;;;11.60;99.90;;;;;;5053756;28;20694;-75
2022/06/20 04:07:22;;;;;;;4.80;2.43;;;11.60;99.90;;;;;;5060644;28;20229;-75
2022/06/20 04:12:48;;;;;;;6.80;2.47;;;11.60;99.90;;;;;;5056302;28;20707;-75
2022/06/20 04:15:20;;;;;;;8.43;2.70;;;11.70;99.90;;;;;;5051919;28;20239;-75
2022/06/20 04:20:42;;;;;;;8.07;3.30;;;11.70;99.90;;;;;;5063643;28;20231;-76
2022/06/20 04:23:15;;;;;;;11.27;3.40;;;11.70;99.90;;;;;;5058082;28;20332;-76
2022/06/20 04:25:48;;;;;;;7.50;2.80;;;11.80;99.90;;;;;;5067474;28;20299;-75
2022/06/20 04:28:27;;;;;;;7.10;2.70;;;11.90;99.90;;;;;;5049799;28;20282;-76
2022/06/20 04:30:58;;;;;;;4.50;2.57;;;12.00;99.90;;;;;;5058471;28;20234;-76
2022/06/20 04:33:31;;;;;;;8.10;3.00;;;12.00;99.90;;;;;;5048474;28;20253;-75
2022/06/20 04:36:12;;;;;;;8.40;3.27;;;12.10;99.90;;;;;;5046747;28;20227;-75
2022/06/20 04:38:48;;;;;;;6.13;2.47;;;12.10;99.90;;;;;;5046618;28;20227;-75
2022/06/20 04:41:21;;;;;;;12.17;2.90;;;12.10;99.90;;;;;;5051513;28;20546;-75
2022/06/20 04:43:52;;;;;;;12.60;3.47;;;12.20;99.90;;;;;;5043793;28;20311;-74
2022/06/20 04:46:25;;;;;;;9.70;3.10;;;12.30;99.90;;;;;;5054621;28;20246;-75
2022/06/20 04:48:52;;;;;;;8.73;3.13;;;12.30;99.90;;;;;;5053406;28;20323;-74
2022/06/20 04:51:25;;;;;;;10.07;3.47;;;12.40;99.90;;;;;;5040988;28;20256;-75
2022/06/20 04:53:53;;;;;;;6.50;2.30;;;12.40;99.90;;;;;;5053970;28;20577;-75
2022/06/20 04:56:26;;;;;;;6.77;2.53;;;12.50;99.90;;;;;;5047618;28;20220;-75
2022/06/20 04:58:56;;;;;;;10.00;2.47;;;12.60;99.90;;;;;;5052559;28;20317;-75
2022/06/20 05:01:24;;;;;;;10.60;3.03;;;12.70;99.90;;;;;;5049799;28;20273;-75
2022/06/20 05:03:55;;;;;;;8.83;2.43;;;12.80;99.90;;;;;;5052687;28;20225;-75
2022/06/20 05:06:25;;;;;;;6.40;2.67;;;12.80;99.90;;;;;;5056495;28;20227;-74
2022/06/20 05:08:56;;;;;;;9.00;2.70;;;12.80;99.90;;;;;;5043410;28;20231;-74
2022/06/20 05:11:27;;;;;;;6.33;2.60;;;12.90;99.90;;;;;;5043867;28;20233;-75
2022/06/20 05:14:01;;;;;;;11.87;3.03;;;12.90;99.90;;;;;;5045534;28;20296;-74
2022/06/20 05:16:32;;;;;;;7.40;2.77;;;12.90;99.90;;;;;;5047450;28;20226;-74
2022/06/20 05:19:06;;;;;;;11.97;2.90;;;12.90;99.90;;;;;;5054178;28;20233;-74
2022/06/20 05:21:39;;;;;;;9.00;2.70;;;12.90;99.90;;;;;;5044401;28;20760;-74
2022/06/20 05:24:12;;;;;;;9.90;3.03;;;12.90;99.90;;;;;;5048165;28;20248;-74
2022/06/20 05:26:42;;;;;;;10.80;3.33;;;12.90;99.90;;;;;;5040932;28;20222;-74
2022/06/20 05:29:22;;;;;;;9.20;3.00;;;12.90;99.90;;;;;;5046026;28;20234;-75
2022/06/20 05:31:52;;;;;;;7.97;2.90;;;13.00;99.90;;;;;;5039991;28;20271;-75
2022/06/20 05:34:24;;;;;;;10.97;3.10;;;13.00;99.90;;;;;;5047871;28;20226;-75
2022/06/20 05:36:57;;;;;;;9.87;3.10;;;13.10;99.90;;;;;;5042532;28;20815;-75
2022/06/20 05:39:31;;;;;;;8.37;2.67;;;13.10;99.90;;;;;;5045470;28;20236;-74
2022/06/20 05:41:59;;;;;;;8.87;2.50;;;13.20;99.90;;;;;;5049064;28;20232;-75
2022/06/20 05:44:25;;;;;;;5.83;1.93;;;13.20;99.90;;;;;;5042547;28;20608;-74
2022/06/20 05:46:58;;;;;;;9.77;2.20;;;13.30;99.90;;;;;;5048377;28;20233;-75
2022/06/20 05:49:29;;;;;;;7.70;2.17;;;13.30;99.90;;;;;;5043833;28;20308;-75
2022/06/20 05:51:58;;;;;;;8.63;2.63;;;13.40;99.90;;;;;;5045713;28;20229;-76
2022/06/20 05:54:30;;;;;;;10.60;2.90;;;13.50;99.90;;;;;;5060368;28;20253;-75
2022/06/20 05:57:01;;;;;;;7.60;2.30;;;13.50;99.90;;;;;;5048470;28;20226;-75
2022/06/20 05:59:39;;;;;;;8.73;2.33;;;13.60;99.90;;;;;;5050950;28;20320;-77
2022/06/20 06:02:24;;;;;;;6.23;1.87;;;13.60;99.90;;;;;;5048529;28;20693;-78
2022/06/20 06:04:58;;;;;;;9.83;2.30;;;13.70;99.90;;;;;;5045737;28;20294;-75
2022/06/20 06:07:31;;;;;;;13.87;2.63;;;13.90;99.90;;;;;;5052577;28;20225;-75
2022/06/20 06:10:02;;;;;;;6.33;1.93;;;14.00;99.90;;;;;;5038656;28;20219;-74
2022/06/20 06:12:35;;;;;;;8.20;2.13;;;14.20;99.90;;;;;;5041586;28;20234;-75
2022/06/20 06:15:10;;;;;;;7.77;2.00;;;14.40;99.90;;;;;;5038398;28;20220;-75
2022/06/20 06:17:42;;;;;;;6.43;2.20;;;14.60;99.90;;;;;;5043187;28;20574;-75
2022/06/20 06:20:13;;;;;;;7.60;2.53;;;14.80;99.90;;;;;;5043333;28;20234;-75
2022/06/20 06:22:43;;;;;;;7.60;2.10;;;15.00;99.90;;;;;;5054386;28;20235;-75
2022/06/20 06:25:23;;;;;;;10.43;2.10;;;15.20;99.90;;;;;;5044185;28;20285;-74
2022/06/20 06:27:54;;;;;;;8.70;2.17;;;15.40;99.90;;;;;;5050080;28;20222;-76
2022/06/20 06:30:23;;;;;;;4.80;1.80;;;15.50;99.90;;;;;;5045097;28;20231;-77
2022/06/20 06:32:55;;;;;;;6.53;1.60;;;15.60;99.90;;;;;;5052945;28;20225;-76
2022/06/20 06:35:26;;;;;;;5.30;1.63;;;15.70;99.90;;;;;;5045745;28;20661;-76
2022/06/20 06:37:58;;;;;;;9.83;1.63;;;15.70;99.90;;;;;;5048907;28;20222;-77
2022/06/20 06:40:36;;;;;;;7.43;1.67;;;15.80;99.90;;;;;;5050914;28;20235;-76
2022/06/20 06:43:07;;;;;;;9.03;1.80;;;15.90;99.50;;;;;;5038497;28;20586;-76
2022/06/20 06:45:35;;;;;;;6.13;1.80;;;16.00;99.90;;;;;;5042955;28;20231;-76
2022/06/20 06:48:08;;;;;;;9.30;2.27;;;16.10;99.70;;;;;;5056377;28;20227;-75
2022/06/20 06:50:40;;;;;;;6.13;1.87;;;16.10;99.60;;;;;;5053487;28;20712;-75
2022/06/20 06:53:16;;;;;;;6.47;1.87;;;16.20;99.50;;;;;;5058999;28;20754;-76
2022/06/20 06:55:49;;;;;;;7.47;2.60;;;16.30;99.00;;;;;;5046132;28;20223;-76
2022/06/20 06:58:21;;;;;;;7.63;2.10;;;16.40;98.70;;;;;;5047167;28;20228;-75
2022/06/20 07:00:54;;;;;;;4.97;1.67;;;16.40;98.80;;;;;;5046614;28;20223;-76
2022/06/20 07:03:25;;;;;;;6.77;1.87;;;16.50;98.90;;;;;;5055119;28;20226;-76
2022/06/20 07:05:56;;;;;;;6.57;1.77;;;16.60;98.70;;;;;;5056434;28;20238;-76
2022/06/20 07:08:24;;;;;;;4.77;1.40;;;16.60;98.50;;;;;;5048821;28;20314;-76
2022/06/20 07:10:58;;;;;;;7.23;1.80;;;16.60;98.50;;;;;;5048619;28;20448;-76
2022/06/20 07:13:35;;;;;;;4.73;1.60;;;16.70;98.50;;;;;;5048477;28;20318;-76
2022/06/20 07:16:08;;;;;;;4.37;1.50;;;16.70;98.20;;;;;;5029432;28;20817;-76
2022/06/20 07:18:42;;;;;;;4.57;1.90;;;16.70;98.30;;;;;;5042990;28;20306;-76
2022/06/20 07:21:12;;;;;;;3.63;1.47;;;16.80;98.30;;;;;;5048649;28;20232;-76
2022/06/20 07:23:40;;;;;;;2.90;1.60;;;16.80;98.20;;;;;;5049207;28;20228;-76
2022/06/20 07:26:08;;;;;;;4.47;1.60;;;16.80;98.10;;;;;;5034505;28;20248;-76
2022/06/20 07:28:40;;;;;;;3.90;1.70;;;16.90;97.80;;;;;;5047302;28;20319;-76
2022/06/20 07:31:15;;;;;;;4.20;1.37;;;16.90;97.40;;;;;;5051000;28;20269;-75
2022/06/20 07:33:47;;;;;;;7.97;1.57;;;17.10;97.70;;;;;;5039635;28;20228;-77
2022/06/20 07:36:18;;;;;;;4.60;1.60;;;17.30;97.60;;;;;;5055610;28;20251;-79
2022/06/20 07:38:51;;;;;;;4.73;1.60;;;17.40;97.30;;;;;;5053933;28;20251;-76
2022/06/20 07:41:23;;;;;;;4.50;1.23;;;17.60;97.00;;;;;;5042492;28;20307;-75
2022/06/20 07:43:56;;;;;;;7.40;1.50;;;17.80;96.50;;;;;;5048349;28;20705;-75
2022/06/20 07:46:28;;;;;;;3.97;1.40;;;18.00;96.00;;;;;;5052545;28;20754;-75
2022/06/20 07:48:59;;;;;;;4.50;1.10;;;18.10;95.50;;;;;;5044473;28;20330;-76
2022/06/20 07:51:31;;;;;;;2.85;1.30;;;18.40;95.40;;;;;;5043537;28;20242;-75
2022/06/20 07:54:02;;;;;;;3.38;1.40;;;18.60;95.40;;;;;;5043608;28;20261;-74
2022/06/20 07:56:37;;;;;;;3.10;1.15;;;19.00;95.30;;;;;;5041903;28;20228;-78
2022/06/20 07:59:10;;;;;;;5.47;1.40;;;19.30;94.50;;;;;;5047711;28;20853;-82
2022/06/20 08:01:45;;;;;;;4.32;1.30;;;19.70;94.00;;;;;;5043614;28;20250;-78
2022/06/20 08:04:13;;;;;;;5.15;1.10;;;19.90;92.80;;;;;;5047013;28;20227;-77
2022/06/20 08:06:45;;;;;;;6.07;1.20;;;20.10;93.30;;;;;;5043480;28;20231;-76
2022/06/20 08:09:19;;;;;;;5.43;1.35;;;20.10;92.60;;;;;;5049020;28;20251;-77
2022/06/20 08:11:52;;;;;;;2.35;0.98;;;20.20;91.70;;;;;;5063829;28;20876;-77
2022/06/20 08:14:26;;;;;;;4.65;1.10;;;20.30;92.40;;;;;;5052577;28;20250;-77
2022/06/20 08:16:58;;;;;;;2.70;1.13;;;20.50;91.90;;;;;;5027033;28;20302;-78
2022/06/20 08:19:25;;;;;;;1.73;0.85;;;20.70;91.00;;;;;;5042284;28;20231;-76
2022/06/20 08:21:58;;;;;;;2.85;1.13;;;20.80;90.60;;;;;;5046333;28;20242;-76
2022/06/20 08:24:30;;;;;;;2.80;0.93;;;20.80;89.30;;;;;;5047764;28;20319;-78
2022/06/20 08:27:04;;;;;;;2.92;1.35;;;20.80;89.20;;;;;;5046192;28;20226;-77
2022/06/20 08:29:35;;;;;;;3.03;1.27;;;20.70;89.20;;;;;;5044561;28;20261;-77
2022/06/20 08:32:14;;;;;;;4.25;1.30;;;20.70;88.90;;;;;;5043590;28;20224;-77
2022/06/20 08:34:48;;;;;;;4.00;1.40;;;20.60;89.00;;;;;;5044986;28;20224;-76
2022/06/20 08:37:21;;;;;;;4.57;1.00;;;20.60;87.40;;;;;;5042872;28;20230;-76
2022/06/20 08:39:51;;;;;;;4.68;1.25;;;20.50;87.70;;;;;;5044422;28;20236;-77
2022/06/20 08:42:47;;;;;;;4.45;1.13;;;20.40;87.70;;;;;;5036935;28;20250;-77
2022/06/20 08:45:27;;;;;;;2.38;1.10;;;20.20;89.50;;;;;;5042970;28;20263;-76
2022/06/20 08:48:27;;;;;;;3.53;1.35;;;20.10;90.10;;;;;;5038443;28;20223;-77
2022/06/20 08:52:06;;;;;;;4.40;1.60;;;19.80;90.00;;;;;;5041887;28;20395;-77
2022/06/20 08:54:50;;;;;;;7.85;2.03;;;19.60;90.00;;;;;;5031004;28;20319;-76
2022/06/20 08:57:23;;;;;;;3.85;1.17;;;19.40;90.40;;;;;;5036716;28;20252;-77
2022/06/20 09:00:05;;;;;;;2.88;1.20;;;19.50;90.80;;;;;;5048729;28;20258;-77
2022/06/20 09:03:08;;;;;;;2.10;1.15;;;19.70;90.30;;;;;;5047764;28;20747;-76
2022/06/20 09:05:50;;;;;;;2.92;1.40;;;19.90;89.10;;;;;;5033445;28;20231;-77
2022/06/20 09:08:46;;;;;;;4.35;1.23;;;20.10;87.70;;;;;;5044510;28;20221;-77
2022/06/20 09:11:29;;;;;;;2.80;1.30;;;20.10;86.40;;;;;;5040208;28;20227;-77
2022/06/20 09:14:35;;;;;;;4.57;1.60;;;20.00;85.10;;;;;;5034126;28;20230;-77
2022/06/20 09:17:11;;;;;;;3.90;1.38;;;19.80;85.80;;;;;;5048057;28;20239;-77
2022/06/20 09:19:57;;;;;;;4.45;1.58;;;19.60;86.50;;;;;;5044986;28;20289;-77
2022/06/20 09:22:45;;;;;;;4.10;1.65;;;19.50;86.50;;;;;;5031492;28;20229;-77
2022/06/20 09:25:24;;;;;;;6.10;1.85;;;19.40;87.20;;;;;;5042399;28;20230;-78
2022/06/20 09:28:01;;;;;;;5.82;2.10;;;19.40;87.90;;;;;;5036114;28;20238;-77
2022/06/20 09:30:38;;;;;;;4.75;1.60;;;19.40;88.10;;;;;;5038168;28;20343;-76
2022/06/20 09:33:49;;;;;;;5.15;1.70;;;19.50;88.10;;;;;;5037553;28;20219;-77
2022/06/20 09:36:37;;;;;;;5.50;1.92;;;19.60;88.10;;;;;;5043038;28;20255;-76
2022/06/20 09:39:16;;;;;;;4.32;1.80;;;19.80;88.10;;;;;;5043996;28;20224;-76
2022/06/20 09:41:57;;;;;;;4.15;1.30;;;20.10;87.80;;;;;;5045775;28;20227;-82
2022/06/20 09:44:34;;;;;;;2.65;1.40;;;20.30;87.90;;;;;;5036620;28;20256;-83
2022/06/20 09:47:09;;;;;;;3.97;1.70;;;20.70;86.60;;;;;;5048850;28;20314;-80
2022/06/20 09:49:52;;;;;;;3.53;1.50;;;21.00;86.70;;;;;;5051789;28;20265;-83
2022/06/20 09:52:25;;;;;;;3.42;1.33;;;21.20;82.20;;;;;;5045708;28;20255;-81
2022/06/20 09:54:58;;;;;;;3.40;1.75;;;21.50;83.40;;;;;;5076261;28;20223;-80
2022/06/20 09:57:37;;;;;;;3.38;1.75;;;21.70;82.00;;;;;;5042103;28;20365;-82
2022/06/20 10:00:09;;;;;;;3.70;1.35;;;21.90;80.50;;;;;;5049390;28;20421;-82
2022/06/20 10:02:55;;;;;;;2.88;1.60;;;22.00;79.40;;;;;;5048355;28;20596;-82
2022/06/20 10:05:39;;;;;;;5.25;1.95;;;22.00;79.90;;;;;;5057507;28;20334;-82
2022/06/20 10:08:18;;;;;;;3.60;1.58;;;21.90;80.00;;;;;;5036985;28;20522;-83
2022/06/20 10:10:50;;;;;;;4.15;1.83;;;21.90;79.50;;;;;;5035889;28;20226;-82
2022/06/20 10:13:24;;;;;;;3.20;1.70;;;22.00;79.00;;;;;;5041056;28;20316;-82
2022/06/20 10:16:00;;;;;;;3.35;1.80;;;22.30;77.40;;;;;;5046395;28;20584;-81
2022/06/20 10:18:37;;;;;;;4.35;1.73;;;22.70;77.40;;;;;;5052052;28;20760;-82
2022/06/20 10:21:10;;;;;;;2.97;1.63;;;23.10;76.70;;;;;;5044756;28;20232;-82
2022/06/20 10:24:06;;;;;;;4.85;1.85;;;23.50;74.70;;;;;;5052413;28;20219;-82
2022/06/20 10:26:58;;;;;;;4.22;1.92;;;23.70;71.20;;;;;;5046059;28;20243;-82
2022/06/20 10:29:31;;;;;;;4.03;1.50;;;23.80;70.90;;;;;;5047752;28;20287;-82
2022/06/20 10:32:08;;;;;;;4.03;1.67;;;23.90;71.10;;;;;;5046967;28;20227;-83
2022/06/20 10:34:43;;;;;;;6.22;1.90;;;24.00;70.20;;;;;;5052244;28;20228;-81
2022/06/20 10:37:27;;;;;;;3.85;1.60;;;24.30;72.00;;;;;;5039359;28;20231;-80
2022/06/20 10:40:00;;;;;;;3.45;1.52;;;24.60;69.50;;;;;;5052824;28;20227;-81
2022/06/20 10:42:33;;;;;;;3.05;1.60;;;25.00;68.00;;;;;;5054627;28;20680;-79
2022/06/20 10:45:31;;;;;;;5.85;1.70;;;25.20;65.80;;;;;;5059484;28;20224;-78
2022/06/20 10:48:33;;;;;;;2.47;1.30;;;25.60;66.90;;;;;;5043776;28;20223;-79
2022/06/20 10:51:03;;;;;;;3.22;1.55;;;25.90;65.70;;;;;;5046184;28;20219;-80
2022/06/20 10:53:37;;;;;;;4.45;1.27;;;26.20;63.70;;;;;;5050486;28;20319;-79
2022/06/20 10:56:15;;;;;;;6.10;1.50;;;26.30;61.00;;;;;;5041103;28;20227;-79
2022/06/20 10:58:58;;;;;;;2.78;1.23;;;26.40;62.00;;;;;;5058781;28;20672;-79
2022/06/20 11:01:35;;;;;;;4.93;1.45;;;26.50;58.60;;;;;;5048810;28;20300;-79
2022/06/20 11:04:25;;;;;;;4.68;1.30;;;26.60;57.50;;;;;;5046892;28;20644;-79
2022/06/20 11:07:05;;;;;;;2.55;1.38;;;26.60;57.30;;;;;;5051559;28;20234;-80
2022/06/20 11:09:45;;;;;;;5.95;1.90;;;26.60;56.70;;;;;;5049305;28;20262;-79
2022/06/20 11:12:26;;;;;;;3.17;1.33;;;26.50;57.20;;;;;;5033072;28;20302;-79
2022/06/20 11:15:01;;;;;;;3.75;1.50;;;26.40;57.50;;;;;;5056689;28;20314;-79
2022/06/20 11:17:43;;;;;;;4.40;1.67;;;26.20;56.20;;;;;;5049322;28;20716;-79
2022/06/20 11:20:19;;;;;;;3.40;1.60;;;26.00;57.70;;;;;;5039350;28;20228;-79
2022/06/20 11:22:51;;;;;;;5.50;1.80;;;25.70;56.70;;;;;;5060937;28;20730;-78
2022/06/20 11:25:38;;;;;;;4.47;1.35;;;25.40;57.20;;;;;;5046731;28;21008;-80
2022/06/20 11:28:29;;;;;;;4.25;1.65;;;25.10;57.60;;;;;;5051757;28;20223;-79
2022/06/20 11:31:03;;;;;;;4.32;1.77;;;24.70;58.20;;;;;;5050384;28;20551;-79
2022/06/20 11:34:01;;;;;;;4.10;2.15;;;24.30;58.70;;;;;;5050167;28;20238;-78
2022/06/20 11:36:37;;;;;;;3.58;1.73;;;23.90;58.80;;;;;;5053196;28;20310;-79
2022/06/20 11:39:19;;;;;;;3.08;1.40;;;23.60;59.10;;;;;;5050015;28;20671;-78
2022/06/20 11:41:52;;;;;;;3.58;1.88;;;23.50;58.60;;;;;;5049711;28;20756;-79
2022/06/20 11:44:53;;;;;;;3.28;1.60;;;23.50;58.60;;;;;;5048119;28;20658;-79
2022/06/20 11:47:35;;;;;;;4.03;1.38;;;23.50;59.10;;;;;;5049765;28;20720;-78
2022/06/20 11:50:22;;;;;;;3.58;1.50;;;23.70;59.70;;;;;;5048161;28;20247;-79
2022/06/20 11:52:56;;;;;;;3.55;1.60;;;23.90;59.40;;;;;;5046718;28;20833;-79
2022/06/20 11:55:29;;;;;;;3.25;1.25;;;24.20;58.80;;;;;;5046505;28;20227;-79
2022/06/20 11:58:02;;;;;;;4.45;1.45;;;24.40;58.20;;;;;;5052750;28;20216;-79
2022/06/20 12:00:37;;;;;;;3.28;1.50;;;24.60;57.40;;;;;;5043088;28;20229;-79
2022/06/20 12:03:14;;;;;;;3.08;1.25;;;24.90;56.20;;;;;;5047065;28;20319;-78
2022/06/20 12:05:52;;;;;;;3.20;1.40;;;25.10;55.90;;;;;;5054574;28;20822;-81
2022/06/20 12:08:31;;;;;;;4.57;1.45;;;25.20;55.50;;;;;;5037520;28;20242;-80
2022/06/20 12:11:02;;;;;;;3.67;1.23;;;25.30;56.00;;;;;;5045378;28;20318;-80
2022/06/20 12:13:46;;;;;;;2.28;1.02;;;25.40;56.60;;;;;;5049191;28;20321;-80
2022/06/20 12:16:26;;;;;;;2.78;1.02;;;25.40;56.60;;;;;;5048360;28;20234;-80
2022/06/20 12:24:46;;;;;;;2.53;1.02;;;25.70;54.20;;;;;;5040988;28;20227;-79
2022/06/20 12:27:16;;;;;;;2.38;1.00;;;25.80;54.30;;;;;;5049925;28;20224;-78
2022/06/20 12:29:49;;;;;;;3.83;0.88;;;26.00;54.50;;;;;;5040472;28;20844;-79
2022/06/20 12:32:18;;;;;;;3.22;0.98;;;26.10;54.30;;;;;;5049438;28;20227;-79
2022/06/20 12:34:51;;;;;;;3.72;1.20;;;26.10;53.80;;;;;;5045762;28;20721;-79
2022/06/20 12:37:26;;;;;;;1.92;0.93;;;25.90;54.10;;;;;;5041750;28;20234;-79
2022/06/20 12:40:02;;;;;;;3.28;1.20;;;25.40;54.70;;;;;;5038198;28;20997;-80
2022/06/20 12:42:40;;;;;;;1.75;0.90;;;24.90;55.50;;;;;;5047138;28;20226;-80
2022/06/20 12:45:40;;;;;;;4.68;1.25;;;24.40;56.40;;;;;;5039694;28;20223;-79
2022/06/20 12:48:22;;;;;;;3.67;1.05;;;23.80;56.80;;;;;;5048167;28;20228;-80
2022/06/20 12:50:55;;;;;;;2.35;0.98;;;23.40;57.30;;;;;;5039536;28;20228;-79
2022/06/20 12:53:39;;;;;;;1.95;0.80;;;23.00;56.80;;;;;;5042493;28;20310;-80
2022/06/20 12:56:15;;;;;;;2.03;0.80;;;22.70;56.70;;;;;;5039834;28;20257;-79
2022/06/20 12:59:12;;;;;;;1.02;0.73;;;22.50;57.20;;;;;;5043919;28;20310;-79
2022/06/20 13:01:45;;;;;;;3.33;0.90;;;22.40;57.30;;;;;;5041136;28;20545;-79
2022/06/20 13:04:36;;;;;;;3.88;0.73;;;22.50;57.10;;;;;;5045332;28;20326;-79
2022/06/20 13:07:28;;;;;;;1.75;0.73;;;22.70;56.50;;;;;;5042892;28;20238;-82
2022/06/20 13:10:06;;;;;;;2.13;0.75;;;22.80;57.00;;;;;;5044870;28;20229;-79
2022/06/20 13:12:53;;;;;;;1.75;0.90;;;23.00;57.40;;;;;;5045743;28;22121;-79
2022/06/20 13:15:39;;;;;;;3.80;0.65;;;23.10;57.30;;;;;;5051780;28;20220;-79
2022/06/20 13:18:42;;;;;;;1.40;0.80;;;23.20;56.20;;;;;;5039930;28;20227;-79
2022/06/20 13:21:18;;;;;;;3.47;0.75;;;23.00;56.10;;;;;;5040300;28;20228;-80
2022/06/20 13:24:04;;;;;;;2.20;0.68;;;22.90;55.80;;;;;;5051998;28;20228;-84
2022/06/20 13:26:36;;;;;;;4.30;0.80;;;22.80;55.30;;;;;;5012397;28;20232;-79
2022/06/20 13:29:19;;;;;;;1.83;0.90;;;22.90;56.00;;;;;;5044683;28;20240;-80
2022/06/20 13:31:53;;;;;;;1.55;0.80;;;23.00;55.20;;;;;;5045375;28;20216;-80
2022/06/20 13:34:32;;;;;;;3.92;0.70;;;23.20;55.70;;;;;;5037298;28;20600;-79
2022/06/20 13:37:06;;;;;;;2.78;1.08;;;23.30;55.40;;;;;;5037563;28;20224;-79
2022/06/20 13:39:46;;;;;;;2.35;1.10;;;23.30;55.80;;;;;;5036994;28;20226;-80
2022/06/20 13:42:18;;;;;;;3.22;1.17;;;23.10;55.80;;;;;;5038632;28;20318;-80